Jump to content


AMERICAN AIRLINES FLIGHT AA2451 FLOWN ON 02-22-2018 BY CAPTAIN JIM BOERMAN

Pilot StatsCaptain Jim Boerman (LDP136) • 4,945.1 total hours • 1,489 total flights [View Logbook]
FLIGHT DETAILS
StatusReceived and approved on 2018-02-22 at 14:02:35
Origin AirportDallas-Ft Worth Intl (KDFW) • Dallas-Ft Worth, Texas, United States (607 feet MSL)
Filed Flight PlanKDFW FUZ J58 HRV J31 LEV A770 KEHLI UA770 TABSA UL209 BETAS UA770 MEDIR UL209 MID UB753 PIKRO MZBZ
Destination AirportPhilip S W Goldson Intl (MZBZ) • Belize City, Belize (15 feet MSL)
Alternate AirportAnacleto Maza Castellanos Intl (MGTK) • Flores, Guatemala (427 feet MSL)
AirlineAmerican Airlines
AircraftBoeing 737-800 | Winglets (73H / B737-800)
FS Aircraft UsedBoeing 737-823 American N917NN AirCal Heritage
Cruising AltitudeFL330
Distance Flown1,036 nautical miles
Passengers Onboard54 passengers (33.33% full)
DEPARTURE DETAILS
Time Out09:52:35
Taxi Data149,037 lbs total with 22,062 lbs of fuel onboard
Takeoff Data10:18:42 (26 minutes after leaving gate/ramp) • 147,901 lbs total • 9° pitch at 161 knots
Departure METARKDFW 221508Z VRB05G14KT 2SM -TSRA BR BKN005CB OVC041 03/02 A3027 RMK AO2 SFC VIS 3 LTG DSNT ALQDS PRESRR OCNL LTGIC ALQDS TS ALDQS MOV N P0004 T00280017 $
ARRIVAL DETAILS
Landing Data12:53:49 • 133,539 lbs total • 5° pitch doing 128 knots at a rate of -242.22 feet/minute with 6,258 lbs of fuel onboard
Time In13:00:54 (7 minutes after landing)
Ramp Weight133,233 lbs total
Total Fuel Used15,804 lbs
Total Block Time03:08:11 (3.1 hours) while 33 minutes were spent on the ground
Arrival METARMZBZ 221840Z 13007KT 5000 -SHRA BKN015 BKN038 25/23 A3010 Q1019 BECMG AT1850 9999
MISCELLANEOUS DETAILS
LiveDISPATCH Version4.8.3.1
FS Version
FSUIPC Version5.12
OS VersionWindows 7 32-bit
Screen Resolution1920 x 1080
Pilot's CommentsNo Comments Reported
FLIGHT MAP